createdAt,value
2022-09-10T00:01:37.733Z,5.30
2022-09-10T00:04:12.365Z,5.30
2022-09-10T00:06:41.881Z,5.70
2022-09-10T00:09:11.404Z,5.90
2022-09-10T00:11:41.267Z,6.30
2022-09-10T00:14:15.383Z,6.70
2022-09-10T00:16:46.157Z,5.20
2022-09-10T00:19:15.222Z,7.00
2022-09-10T00:21:46.956Z,6.90
2022-09-10T00:24:14.868Z,7.30
2022-09-10T00:26:42.896Z,7.10
2022-09-10T00:29:13.049Z,6.20
2022-09-10T00:31:41.163Z,6.80
2022-09-10T00:34:12.234Z,6.90
2022-09-10T00:36:44.001Z,8.20
2022-09-10T00:39:16.021Z,9.60
2022-09-10T00:41:46.893Z,10.50
2022-09-10T00:44:39.906Z,7.60
2022-09-10T00:47:22.334Z,7.40
2022-09-10T00:50:17.468Z,5.50
2022-09-10T00:52:47.828Z,6.60
2022-09-10T00:55:16.936Z,5.80
2022-09-10T00:57:47.773Z,7.70
2022-09-10T01:00:16.468Z,7.10
2022-09-10T01:02:44.689Z,9.00
2022-09-10T01:05:13.784Z,7.70
2022-09-10T01:07:43.042Z,9.90
2022-09-10T01:10:18.726Z,6.10
2022-09-10T01:13:01.697Z,6.80
2022-09-10T01:15:54.718Z,7.30
2022-09-10T01:18:51.762Z,8.80
2022-09-10T01:21:42.822Z,6.50
2022-09-10T01:24:29.959Z,8.50
2022-09-10T01:27:23.348Z,8.10
2022-09-10T01:30:19.379Z,10.20
2022-09-10T01:33:43.225Z,9.40
2022-09-10T01:36:17.216Z,8.70
2022-09-10T01:38:45.497Z,6.10
2022-09-10T01:41:13.931Z,7.30
2022-09-10T01:43:42.140Z,6.20
2022-09-10T01:46:41.668Z,9.50
2022-09-10T01:49:36.941Z,5.60
2022-09-10T01:52:37.264Z,6.70
2022-09-10T01:55:32.950Z,5.70
2022-09-10T01:58:20.447Z,5.70
2022-09-10T02:01:26.251Z,5.50
2022-09-10T02:03:59.656Z,4.00
2022-09-10T02:06:29.876Z,8.60
2022-09-10T02:09:00.035Z,5.70
2022-09-10T02:11:28.409Z,6.60
2022-09-10T02:13:58.487Z,6.30
2022-09-10T02:16:37.971Z,4.60
2022-09-10T02:19:06.165Z,5.20
2022-09-10T02:21:36.191Z,4.70
2022-09-10T02:24:08.625Z,7.80
2022-09-10T02:26:40.217Z,7.30
2022-09-10T02:29:10.215Z,6.10
2022-09-10T02:31:38.546Z,4.00
2022-09-10T02:34:06.671Z,5.60
2022-09-10T02:36:35.957Z,6.60
2022-09-10T02:39:05.579Z,4.00
2022-09-10T02:41:34.241Z,4.60
2022-09-10T02:44:03.584Z,3.90
2022-09-10T02:46:31.922Z,5.60
2022-09-10T02:48:59.775Z,7.20
2022-09-10T02:51:27.569Z,5.80
2022-09-10T02:53:56.000Z,6.50
2022-09-10T02:56:23.877Z,6.00
2022-09-10T02:58:51.744Z,7.70
2022-09-10T03:01:22.483Z,5.20
2022-09-10T03:03:52.713Z,6.40
2022-09-10T03:06:21.793Z,6.40
2022-09-10T03:08:50.511Z,5.30
2022-09-10T03:11:18.951Z,4.50
2022-09-10T03:13:46.746Z,4.80
2022-09-10T03:16:15.480Z,4.00
2022-09-10T03:18:43.614Z,3.90
2022-09-10T03:21:21.411Z,4.00
2022-09-10T03:23:51.304Z,4.60
2022-09-10T03:26:21.627Z,3.70
2022-09-10T03:28:52.983Z,3.90
2022-09-10T03:31:21.908Z,3.80
2022-09-10T03:33:51.273Z,3.70
2022-09-10T03:36:19.461Z,4.00
2022-09-10T03:38:47.133Z,4.10
2022-09-10T03:41:14.901Z,4.00
2022-09-10T03:43:42.773Z,6.20
2022-09-10T03:46:12.270Z,6.60
2022-09-10T03:48:40.127Z,3.20
2022-09-10T03:51:08.030Z,5.30
2022-09-10T03:53:35.970Z,6.10
2022-09-10T03:56:03.755Z,6.20
2022-09-10T03:58:32.537Z,5.10
2022-09-10T04:01:00.438Z,5.50
2022-09-10T04:03:29.677Z,4.90
2022-09-10T04:05:58.679Z,4.60
2022-09-10T04:08:26.467Z,7.40
2022-09-10T04:10:57.093Z,5.30
2022-09-10T04:13:25.028Z,7.80
2022-09-10T04:15:54.673Z,6.30
2022-09-10T04:18:22.425Z,5.30
2022-09-10T04:20:50.179Z,9.60
2022-09-10T04:23:18.009Z,6.20
2022-09-10T04:25:46.818Z,4.40
2022-09-10T04:28:14.601Z,5.00
2022-09-10T04:30:44.961Z,4.70
2022-09-10T04:33:13.399Z,4.90
2022-09-10T04:38:52.563Z,4.20
2022-09-10T04:41:20.411Z,5.60
2022-09-10T04:43:48.227Z,5.00
2022-09-10T04:46:17.881Z,4.20
2022-09-10T04:48:45.880Z,7.90
2022-09-10T04:51:16.552Z,4.40
2022-09-10T04:53:46.356Z,5.30
2022-09-10T04:56:14.616Z,4.70
2022-09-10T04:58:44.470Z,4.50
2022-09-10T05:09:03.847Z,5.40
2022-09-10T05:11:31.698Z,4.60
2022-09-10T05:13:59.468Z,4.80
2022-09-10T05:16:27.255Z,3.20
2022-09-10T05:18:55.508Z,8.50
2022-09-10T05:21:23.335Z,3.50
2022-09-10T05:23:51.119Z,3.20
2022-09-10T05:26:18.944Z,4.60
2022-09-10T05:28:47.925Z,3.30
2022-09-10T05:32:21.608Z,5.20
2022-09-10T05:39:44.871Z,5.40
2022-09-10T05:42:13.391Z,6.50
2022-09-10T07:04:48.067Z,6.30
2022-09-10T07:18:10.165Z,6.80
2022-09-10T07:20:39.184Z,2.40
2022-09-10T07:23:11.090Z,2.30
2022-09-10T07:25:41.958Z,2.30
2022-09-10T07:28:15.126Z,5.90
2022-09-10T07:30:44.469Z,4.60
2022-09-10T07:33:12.371Z,6.10
2022-09-10T07:35:41.634Z,5.50
2022-09-10T07:38:20.669Z,5.20
2022-09-10T07:40:48.517Z,2.60
2022-09-10T07:43:23.475Z,3.10
2022-09-10T07:45:51.575Z,2.50
2022-09-10T07:48:19.383Z,8.50
2022-09-10T07:50:49.422Z,4.60
2022-09-10T07:53:17.935Z,3.30
2022-09-10T07:55:49.730Z,5.50
2022-09-10T07:58:22.527Z,4.70
2022-09-10T08:00:50.693Z,2.50
2022-09-10T08:03:21.700Z,3.20
2022-09-10T08:05:50.644Z,3.00
2022-09-10T08:08:20.294Z,2.10
2022-09-10T08:10:49.937Z,3.70
2022-09-10T08:13:18.561Z,1.90
2022-09-10T08:15:46.569Z,3.10
2022-09-10T08:18:14.891Z,3.30
2022-09-10T08:21:06.502Z,3.30
2022-09-10T08:23:39.926Z,2.90
2022-09-10T08:26:10.842Z,3.30
2022-09-10T08:29:58.623Z,2.60
2022-09-10T08:33:25.656Z,3.80
2022-09-10T08:36:37.856Z,3.50
2022-09-10T08:44:15.685Z,2.50
2022-09-10T08:46:58.643Z,2.20
2022-09-10T08:50:41.309Z,4.50
2022-09-10T08:53:43.833Z,1.80
2022-09-10T08:56:17.142Z,2.50
2022-09-10T08:58:47.607Z,2.00
2022-09-10T09:01:30.765Z,2.70
2022-09-10T09:04:02.621Z,4.00
2022-09-10T09:06:50.523Z,2.80
2022-09-10T09:09:18.344Z,2.50
2022-09-10T09:12:15.852Z,2.90
2022-09-10T09:15:37.491Z,1.70
2022-09-10T09:18:28.128Z,8.10
2022-09-10T09:21:18.333Z,2.10
2022-09-10T09:24:14.675Z,3.20
2022-09-10T09:26:46.490Z,2.80
2022-09-10T09:29:24.894Z,2.20
2022-09-10T09:31:58.442Z,1.60
2022-09-10T09:34:41.654Z,2.10
2022-09-10T09:37:18.680Z,2.70
2022-09-10T09:39:59.158Z,4.10
2022-09-10T09:42:46.175Z,1.80
2022-09-10T09:45:44.151Z,1.50
2022-09-10T09:48:18.797Z,2.60
2022-09-10T09:50:55.839Z,2.20
2022-09-10T09:53:27.944Z,2.00
2022-09-10T09:56:06.999Z,1.30
2022-09-10T09:58:37.486Z,1.50
2022-09-10T10:01:14.945Z,3.10
2022-09-10T10:03:54.559Z,1.50
2022-09-10T10:06:35.094Z,4.20
2022-09-10T10:09:30.234Z,3.70
2022-09-10T10:12:06.073Z,3.80
2022-09-10T10:14:39.892Z,3.10
2022-09-10T10:17:36.802Z,3.80
2022-09-10T10:20:38.735Z,3.80
2022-09-10T10:23:32.651Z,3.90
2022-09-10T10:26:15.865Z,3.70
2022-09-10T10:28:49.894Z,2.30
2022-09-10T10:31:19.064Z,2.90
2022-09-10T10:34:16.758Z,1.70
2022-09-10T10:37:08.880Z,2.40
2022-09-10T10:40:10.185Z,3.60
2022-09-10T10:42:49.480Z,4.10
2022-09-10T10:45:28.553Z,4.20
2022-09-10T10:48:28.645Z,4.30
2022-09-10T10:51:15.064Z,3.80
2022-09-10T10:54:12.068Z,3.10
2022-09-10T10:56:56.358Z,3.90
2022-09-10T10:59:44.780Z,3.40
2022-09-10T11:02:22.618Z,5.20
2022-09-10T11:04:52.489Z,5.40
2022-09-10T11:07:41.324Z,3.50
2022-09-10T11:10:34.164Z,4.20
2022-09-10T11:16:41.647Z,4.00
2022-09-10T11:20:11.123Z,3.50
2022-09-10T11:23:18.614Z,3.60
2022-09-10T11:26:13.515Z,3.50
2022-09-10T11:29:00.092Z,4.20
2022-09-10T11:31:36.039Z,2.30
2022-09-10T11:34:10.997Z,2.70
2022-09-10T11:36:49.308Z,3.10
2022-09-10T11:39:36.406Z,2.30
2022-09-10T11:42:13.702Z,2.70
2022-09-10T11:45:05.615Z,3.20
2022-09-10T11:47:51.162Z,8.20
2022-09-10T11:50:25.110Z,7.00
2022-09-10T11:52:53.746Z,2.90
2022-09-10T11:55:23.746Z,2.00
2022-09-10T11:58:38.897Z,2.30
2022-09-10T12:01:27.607Z,2.20
2022-09-10T12:04:01.979Z,3.70
2022-09-10T12:07:04.355Z,3.30
2022-09-10T12:09:42.424Z,2.00
2022-09-10T12:12:53.487Z,2.60
2022-09-10T12:15:34.685Z,2.70
2022-09-10T12:18:22.108Z,2.10
2022-09-10T12:21:05.216Z,2.90
2022-09-10T12:23:37.674Z,2.40
2022-09-10T12:28:42.933Z,1.10
2022-09-10T12:31:14.315Z,2.20
2022-09-10T12:33:44.778Z,1.70
2022-09-10T12:36:33.065Z,1.90
2022-09-10T12:39:22.034Z,1.90
2022-09-10T12:41:50.032Z,1.80
2022-09-10T12:44:36.288Z,2.00
2022-09-10T12:47:16.804Z,3.30
2022-09-10T12:49:58.581Z,1.70
2022-09-10T12:52:35.283Z,1.90
2022-09-10T12:55:14.847Z,4.30
2022-09-10T12:58:00.904Z,2.20
2022-09-10T13:00:49.765Z,1.40
2022-09-10T13:03:19.985Z,3.20
2022-09-10T13:05:52.957Z,1.90
2022-09-10T13:08:32.273Z,1.30
2022-09-10T13:11:00.202Z,2.00
2022-09-10T13:13:38.355Z,1.40
2022-09-10T13:16:18.143Z,3.00
2022-09-10T13:18:47.143Z,3.70
2022-09-10T13:21:24.632Z,3.60
2022-09-10T13:23:57.091Z,2.80
2022-09-10T13:26:39.972Z,1.60
2022-09-10T13:29:33.500Z,2.40
2022-09-10T13:32:16.845Z,4.70
2022-09-10T13:35:13.432Z,2.10
2022-09-10T13:38:09.949Z,2.50
2022-09-10T13:41:19.797Z,2.40
2022-09-10T13:44:21.561Z,1.80
2022-09-10T13:46:58.796Z,2.40
2022-09-10T13:49:51.825Z,1.10
2022-09-10T13:52:29.359Z,5.60
2022-09-10T13:54:58.389Z,2.80
2022-09-10T13:57:36.551Z,2.40
2022-09-10T14:00:15.998Z,1.60
2022-09-10T14:02:47.502Z,1.80
2022-09-10T14:05:42.331Z,3.90
2022-09-10T14:08:28.448Z,1.40
2022-09-10T14:11:04.444Z,1.90
2022-09-10T14:13:40.918Z,4.70
2022-09-10T14:16:12.703Z,3.30
2022-09-10T14:18:52.416Z,2.50
2022-09-10T14:21:27.741Z,3.10
2022-09-10T14:23:58.296Z,2.80
2022-09-10T14:26:30.174Z,3.00
2022-09-10T14:29:03.534Z,3.10
2022-09-10T14:31:36.435Z,1.80
2022-09-10T14:34:25.061Z,1.70
2022-09-10T14:36:53.295Z,2.00
2022-09-10T14:39:22.451Z,3.50
2022-09-10T14:42:10.551Z,2.30
2022-09-10T14:44:42.778Z,1.60
2022-09-10T14:49:47.298Z,1.40
2022-09-10T14:52:15.645Z,2.70
2022-09-10T14:54:43.668Z,2.90
2022-09-10T14:57:16.208Z,2.50
2022-09-10T14:59:46.507Z,2.80
2022-09-10T15:02:24.283Z,2.50
2022-09-10T15:04:52.395Z,3.40
2022-09-10T15:07:20.878Z,2.40
2022-09-10T15:09:48.768Z,2.60
2022-09-10T15:12:24.238Z,2.80
2022-09-10T15:14:52.329Z,4.40
2022-09-10T15:17:20.165Z,3.30
2022-09-10T15:19:48.702Z,2.70
2022-09-10T15:22:25.342Z,2.30
2022-09-10T15:25:11.136Z,4.00
2022-09-10T15:27:39.468Z,3.80
2022-09-10T15:30:08.011Z,3.60
2022-09-10T15:32:35.937Z,4.10
2022-09-10T15:35:04.451Z,3.40
2022-09-10T15:37:35.301Z,4.20
2022-09-10T15:40:04.638Z,3.40
2022-09-10T15:42:32.539Z,3.70
2022-09-10T15:45:00.264Z,2.80
2022-09-10T15:47:29.058Z,4.10
2022-09-10T15:49:56.859Z,2.00
2022-09-10T15:52:27.070Z,5.70
2022-09-10T15:54:57.879Z,3.00
2022-09-10T15:57:26.331Z,4.80
2022-09-10T15:59:54.479Z,4.60
2022-09-10T16:02:22.858Z,4.40
2022-09-10T16:04:50.582Z,47.80
2022-09-10T16:07:18.444Z,8.10
2022-09-10T16:09:46.403Z,7.00
2022-09-10T16:12:14.119Z,3.80
2022-09-10T16:14:44.447Z,5.40
2022-09-10T16:17:17.748Z,3.20
2022-09-10T16:19:45.615Z,3.70
2022-09-10T16:22:16.479Z,4.30
2022-09-10T16:24:47.974Z,5.40
2022-09-10T16:27:17.702Z,8.70
2022-09-10T16:29:46.529Z,7.10
2022-09-10T16:32:14.593Z,3.30
2022-09-10T16:34:42.346Z,2.00
2022-09-10T16:37:10.196Z,4.70
2022-09-10T16:39:38.073Z,3.70
2022-09-10T16:42:05.979Z,3.30
2022-09-10T16:44:34.099Z,3.90
2022-09-10T16:47:02.208Z,2.20
2022-09-10T16:49:29.936Z,12.50
2022-09-10T16:51:57.796Z,5.70
2022-09-10T16:54:26.726Z,2.70
2022-09-10T16:56:55.573Z,4.90
2022-09-10T16:59:25.871Z,3.70
2022-09-10T17:01:54.081Z,3.00
2022-09-10T17:04:28.272Z,4.10
2022-09-10T17:06:57.787Z,3.80
2022-09-10T17:09:25.919Z,3.80
2022-09-10T17:11:54.143Z,2.50
2022-09-10T17:14:22.222Z,2.80
2022-09-10T17:16:50.722Z,3.60
2022-09-10T17:19:26.458Z,4.30
2022-09-10T17:21:56.981Z,6.70
2022-09-10T17:24:26.630Z,4.30
2022-09-10T17:26:57.780Z,4.20
2022-09-10T17:29:26.629Z,3.30
2022-09-10T17:31:57.743Z,4.40
2022-09-10T17:34:27.690Z,6.80
2022-09-10T17:36:56.550Z,5.70
2022-09-10T17:39:29.510Z,5.40
2022-09-10T17:41:58.154Z,8.20
2022-09-10T17:44:27.251Z,6.20
2022-09-10T17:46:55.612Z,7.80
2022-09-10T17:49:26.994Z,6.60
2022-09-10T17:51:54.958Z,8.10
2022-09-10T17:54:23.584Z,10.70
2022-09-10T17:56:51.775Z,8.50
2022-09-10T17:59:22.736Z,7.80
2022-09-10T18:01:55.126Z,7.10
2022-09-10T18:04:27.033Z,7.90
2022-09-10T18:06:57.851Z,9.90
2022-09-10T18:09:26.761Z,8.90
2022-09-10T18:11:56.575Z,8.90
2022-09-10T18:14:26.263Z,7.80
2022-09-10T18:16:55.842Z,8.60
2022-09-10T18:19:26.492Z,8.40
2022-09-10T18:21:56.372Z,7.60
2022-09-10T18:24:28.323Z,13.10
2022-09-10T18:27:07.258Z,10.80
2022-09-10T18:29:41.744Z,11.00
2022-09-10T18:34:39.972Z,11.50
2022-09-10T18:37:07.788Z,9.10
2022-09-10T18:39:35.917Z,7.90
2022-09-10T18:42:04.173Z,9.30
2022-09-10T18:44:35.293Z,9.80
2022-09-10T18:47:17.862Z,10.20
2022-09-10T18:49:56.205Z,8.60
2022-09-10T18:52:24.245Z,7.10
2022-09-10T18:54:52.110Z,8.90
2022-09-10T18:57:20.361Z,6.40
2022-09-10T18:59:50.101Z,7.90
2022-09-10T19:02:19.754Z,5.80
2022-09-10T19:05:09.780Z,5.70
2022-09-10T19:07:37.362Z,14.40
2022-09-10T19:10:08.565Z,15.70
2022-09-10T19:12:36.391Z,31.50
2022-09-10T19:15:04.485Z,33.90
2022-09-10T19:17:32.304Z,37.90
2022-09-10T19:20:00.081Z,35.30
2022-09-10T19:22:28.319Z,33.60
2022-09-10T19:24:56.346Z,37.90
2022-09-10T19:27:24.537Z,37.30
2022-09-10T19:29:53.599Z,34.90
2022-09-10T19:32:22.189Z,42.80
2022-09-10T19:34:51.447Z,84.80
2022-09-10T19:37:19.997Z,116.60
2022-09-10T19:39:48.053Z,78.90
2022-09-10T19:42:16.518Z,36.80
2022-09-10T19:44:44.382Z,29.40
2022-09-10T19:47:12.132Z,25.70
2022-09-10T19:49:39.869Z,27.50
2022-09-10T19:52:07.675Z,33.30
2022-09-10T19:54:35.418Z,29.00
2022-09-10T19:57:03.486Z,28.60
2022-09-10T19:59:31.511Z,30.50
2022-09-10T20:01:59.382Z,22.00
2022-09-10T20:04:27.775Z,22.80
2022-09-10T20:06:55.706Z,16.80
2022-09-10T20:09:23.544Z,15.30
2022-09-10T20:11:51.663Z,13.80
2022-09-10T20:14:20.396Z,12.60
2022-09-10T20:16:48.324Z,10.70
2022-09-10T20:19:22.114Z,15.10
2022-09-10T20:21:50.024Z,16.40
2022-09-10T20:24:17.925Z,16.10
2022-09-10T20:26:46.789Z,14.70
2022-09-10T20:29:19.607Z,10.30
2022-09-10T20:31:48.700Z,9.40
2022-09-10T20:34:20.236Z,7.70
2022-09-10T20:36:52.889Z,11.10
2022-09-10T20:41:53.824Z,9.90
2022-09-10T20:44:23.295Z,7.60
2022-09-10T20:46:52.162Z,9.20
2022-09-10T20:49:21.617Z,7.60
2022-09-10T20:52:08.184Z,8.80
2022-09-10T20:54:35.998Z,9.30
2022-09-10T20:57:04.065Z,11.30
2022-09-10T20:59:32.117Z,10.10
2022-09-10T21:02:00.188Z,10.10
2022-09-10T21:04:28.045Z,11.40
2022-09-10T21:06:55.971Z,10.40
2022-09-10T21:09:24.444Z,17.80
2022-09-10T21:11:52.284Z,45.10
2022-09-10T21:14:20.102Z,47.30
2022-09-10T21:16:48.058Z,26.00
2022-09-10T21:19:17.272Z,21.50
2022-09-10T21:21:46.267Z,18.10
2022-09-10T21:24:23.816Z,16.10
2022-09-10T21:26:53.383Z,16.10
2022-09-10T21:29:21.549Z,17.10
2022-09-10T21:31:54.835Z,14.40
2022-09-10T21:34:23.673Z,16.20
2022-09-10T21:36:51.892Z,14.20
2022-09-10T21:39:19.870Z,15.50
2022-09-10T21:41:50.799Z,11.70
2022-09-10T21:44:24.477Z,17.50
2022-09-10T21:46:52.894Z,16.00
2022-09-10T21:49:21.220Z,19.00
2022-09-10T21:51:49.594Z,17.80
2022-09-10T21:54:20.914Z,17.30
2022-09-10T21:56:50.411Z,18.90
2022-09-10T21:59:26.123Z,17.80
2022-09-10T22:01:54.664Z,20.80
2022-09-10T22:04:23.452Z,16.80
2022-09-10T22:06:54.026Z,17.40
2022-09-10T22:09:22.174Z,17.00
2022-09-10T22:11:52.148Z,18.30
2022-09-10T22:14:23.813Z,17.70
2022-09-10T22:16:52.712Z,16.60
2022-09-10T22:19:25.927Z,16.90
2022-09-10T22:21:54.746Z,21.10
2022-09-10T22:24:22.715Z,36.50
2022-09-10T22:26:50.622Z,34.70
2022-09-10T22:29:20.428Z,29.90
2022-09-10T22:31:48.558Z,29.80
2022-09-10T22:34:17.904Z,29.50
2022-09-10T22:36:47.109Z,23.00
2022-09-10T22:39:22.075Z,23.50
2022-09-10T22:41:50.837Z,14.80
2022-09-10T22:44:37.050Z,15.70
2022-09-10T22:47:05.021Z,13.80
2022-09-10T22:49:32.745Z,22.00
2022-09-10T22:52:00.481Z,23.60
2022-09-10T22:54:28.411Z,23.70
2022-09-10T22:56:56.093Z,20.50
2022-09-10T22:59:23.919Z,21.20
2022-09-10T23:01:51.838Z,22.80
2022-09-10T23:04:19.703Z,22.40
2022-09-10T23:06:47.654Z,21.20
2022-09-10T23:09:17.588Z,21.20
2022-09-10T23:11:45.881Z,23.70
2022-09-10T23:14:19.205Z,20.60
2022-09-10T23:16:51.030Z,22.90
2022-09-10T23:21:52.825Z,31.80
2022-09-10T23:24:26.850Z,33.90
2022-09-10T23:26:55.350Z,35.60
2022-09-10T23:29:24.286Z,39.70
2022-09-10T23:31:55.308Z,35.90
2022-09-10T23:34:23.074Z,34.90
2022-09-10T23:36:51.900Z,29.60
2022-09-10T23:39:23.005Z,29.20
2022-09-10T23:41:54.305Z,27.30
2022-09-10T23:44:22.842Z,25.40
2022-09-10T23:46:51.186Z,26.10
2022-09-10T23:49:19.152Z,29.50
2022-09-10T23:51:46.992Z,24.10
2022-09-10T23:54:15.366Z,22.30
2022-09-10T23:56:43.854Z,19.40
2022-09-10T23:59:11.714Z,21.30
